Time;durP1;ratioP1;P1;durP2;ratioP2;P2;SDS_P1;SDS_P2;PMS_P1;PMS_P2;Temp;Humidity;BMP_temperature;BMP_pressure;BME280_temperature;BME280_humidity;BME280_pressure;Samples;Min_cycle;Max_cycle;Signal;HPM_P1;HPM_P2
2022/01/22 00:00:18;;;;;;;1.08;0.40;;;6.30;51.80;;;;;;5072270;28;20655;-50
2022/01/22 00:02:44;;;;;;;1.40;0.75;;;6.30;51.80;;;;;;5073736;28;20221;-50
2022/01/22 00:05:11;;;;;;;2.20;0.90;;;6.30;51.80;;;;;;5073579;28;20173;-50
2022/01/22 00:07:37;;;;;;;1.20;0.52;;;6.30;51.50;;;;;;5073518;28;20259;-50
2022/01/22 00:10:07;;;;;;;1.37;0.90;;;6.30;51.40;;;;;;5073519;28;20326;-50
2022/01/22 00:15:09;;;;;;;1.50;1.00;;;6.40;51.10;;;;;;5073472;28;20697;-50
2022/01/22 00:17:35;;;;;;;1.83;1.10;;;6.40;51.20;;;;;;5073633;28;20183;-50
2022/01/22 00:20:00;;;;;;;1.92;1.20;;;6.40;51.00;;;;;;5073374;28;20164;-50
2022/01/22 00:22:30;;;;;;;1.20;0.83;;;6.40;50.90;;;;;;5071952;28;20228;-50
2022/01/22 00:25:01;;;;;;;1.50;0.95;;;6.40;50.80;;;;;;5073281;28;20518;-50
2022/01/22 00:27:28;;;;;;;1.05;0.50;;;6.40;51.50;;;;;;5073290;28;20167;-50
2022/01/22 00:29:55;;;;;;;1.85;0.98;;;6.30;51.90;;;;;;5073282;28;20191;-50
2022/01/22 00:32:21;;;;;;;2.38;1.17;;;6.30;51.30;;;;;;5073286;28;20187;-50
2022/01/22 00:34:46;;;;;;;2.22;1.30;;;6.30;51.50;;;;;;5055273;28;20602;-50
2022/01/22 00:37:13;;;;;;;2.00;1.73;;;6.40;51.80;;;;;;5073269;28;20168;-50
2022/01/22 00:39:38;;;;;;;1.00;0.40;;;6.30;51.90;;;;;;5073321;28;20410;-50
2022/01/22 00:42:14;;;;;;;1.10;0.50;;;6.40;51.60;;;;;;5072183;28;20578;-50
2022/01/22 00:44:40;;;;;;;1.65;1.25;;;6.30;52.60;;;;;;5073470;28;20203;-50
2022/01/22 00:47:06;;;;;;;1.10;0.50;;;6.30;52.40;;;;;;5073403;28;20508;-50
2022/01/22 00:49:33;;;;;;;1.50;0.90;;;6.30;52.80;;;;;;5073165;28;20200;-50
2022/01/22 00:51:59;;;;;;;1.45;0.82;;;6.20;52.90;;;;;;5073098;28;20460;-50
2022/01/22 00:54:24;;;;;;;1.00;0.30;;;6.20;53.00;;;;;;5073327;28;20259;-50
2022/01/22 00:56:50;;;;;;;2.23;0.80;;;6.30;52.70;;;;;;5073120;28;20407;-50
2022/01/22 00:59:16;;;;;;;1.30;0.80;;;6.30;53.30;;;;;;5073029;28;20632;-50
2022/01/22 01:01:42;;;;;;;1.20;0.80;;;6.30;53.40;;;;;;5073001;28;20172;-50
2022/01/22 01:04:10;;;;;;;1.08;0.40;;;6.30;53.50;;;;;;5072985;28;20529;-50
2022/01/22 01:06:36;;;;;;;1.42;0.70;;;6.80;53.40;;;;;;5073119;28;20169;-50
2022/01/22 01:09:06;;;;;;;1.83;1.10;;;6.30;53.70;;;;;;5074546;28;20200;-50
2022/01/22 01:11:36;;;;;;;0.90;0.30;;;6.30;54.10;;;;;;5076958;28;20185;-50
2022/01/22 01:14:04;;;;;;;1.73;0.88;;;6.40;53.60;;;;;;5076894;28;20255;-50
2022/01/22 01:35:28;;;;;;;1.20;0.50;;;6.60;55.20;;;;;;5075602;28;20180;-49
2022/01/22 01:37:56;;;;;;;3.05;0.85;;;6.60;54.70;;;;;;5076172;28;20195;-49
2022/01/22 01:40:24;;;;;;;1.30;0.60;;;6.70;55.20;;;;;;5076138;28;20172;-49
2022/01/22 01:43:03;;;;;;;1.80;0.88;;;6.60;55.70;;;;;;5076237;28;20164;-49
2022/01/22 01:45:29;;;;;;;1.27;0.60;;;6.70;55.20;;;;;;5076070;28;20561;-49
2022/01/22 01:48:03;;;;;;;1.40;0.50;;;6.70;54.90;;;;;;5076098;28;20274;-49
2022/01/22 01:50:31;;;;;;;1.00;0.40;;;6.80;55.20;;;;;;5075886;28;20326;-49
2022/01/22 01:53:13;;;;;;;3.50;0.60;;;6.80;55.00;;;;;;5076265;28;20180;-49
2022/01/22 01:57:26;;;;;;;1.10;0.68;;;6.90;55.00;;;;;;5075934;28;20228;-50
2022/01/22 01:58:28;;;;;;;1.20;0.40;;;7.00;54.50;;;;;;5075546;28;20330;-49
2022/01/22 02:00:56;;;;;;;1.20;0.63;;;7.00;55.30;;;;;;5075864;28;20222;-50
2022/01/22 02:03:22;;;;;;;1.00;0.30;;;7.00;55.00;;;;;;5075695;28;20252;-49
2022/01/22 02:05:48;;;;;;;1.10;0.60;;;7.10;54.70;;;;;;5075752;28;20180;-50
2022/01/22 02:08:15;;;;;;;1.50;0.47;;;7.10;54.80;;;;;;5075841;28;20169;-49
2022/01/22 02:10:47;;;;;;;1.00;0.40;;;7.10;55.00;;;;;;5075697;28;20450;-49
2022/01/22 02:24:14;;;;;;;1.20;0.52;;;7.10;55.60;;;;;;5075435;28;20210;-49
2022/01/22 02:26:46;;;;;;;1.52;0.80;;;7.20;55.60;;;;;;5075249;28;20187;-50
2022/01/22 02:29:12;;;;;;;1.00;0.40;;;7.20;55.10;;;;;;5075257;28;20211;-49
2022/01/22 02:31:58;;;;;;;1.00;0.40;;;7.30;55.20;;;;;;5075290;28;20532;-49
2022/01/22 02:34:37;;;;;;;1.17;0.60;;;7.30;55.50;;;;;;5075258;28;20411;-50
2022/01/22 02:37:10;;;;;;;1.50;0.40;;;7.30;55.00;;;;;;5075235;28;20188;-50
2022/01/22 02:39:41;;;;;;;1.60;0.85;;;7.30;55.20;;;;;;5075001;28;20673;-50
2022/01/22 02:42:08;;;;;;;1.05;0.45;;;7.40;54.70;;;;;;5075270;28;20165;-49
2022/01/22 02:44:36;;;;;;;1.10;0.40;;;7.40;54.70;;;;;;5074874;28;20196;-49
2022/01/22 02:47:08;;;;;;;1.10;0.50;;;7.50;54.50;;;;;;5074837;28;20641;-50
2022/01/22 02:49:34;;;;;;;1.45;0.70;;;7.50;55.00;;;;;;5074787;28;20205;-50
2022/01/22 02:52:03;;;;;;;0.90;0.30;;;7.50;54.90;;;;;;5074781;28;20172;-50
2022/01/22 02:54:29;;;;;;;1.05;0.40;;;7.50;54.40;;;;;;5074824;28;20169;-49
2022/01/22 02:56:55;;;;;;;1.25;0.50;;;7.60;54.50;;;;;;5074655;28;20226;-50
2022/01/22 02:59:23;;;;;;;1.77;0.43;;;7.60;54.20;;;;;;5074621;28;20165;-50
2022/01/22 03:01:49;;;;;;;1.98;0.85;;;7.60;54.60;;;;;;5074644;28;20525;-50
2022/01/22 03:04:15;;;;;;;1.40;0.75;;;7.60;54.80;;;;;;5074494;28;20187;-50
2022/01/22 03:06:41;;;;;;;1.07;0.30;;;7.60;55.40;;;;;;5074579;28;20209;-50
2022/01/22 03:09:09;;;;;;;1.30;0.73;;;7.60;54.90;;;;;;5074323;28;20220;-49
2022/01/22 03:11:44;;;;;;;1.85;0.55;;;7.60;54.60;;;;;;5074594;28;20173;-50
2022/01/22 03:17:31;;;;;;;1.30;0.60;;;7.70;54.70;;;;;;5073421;28;20189;-50
2022/01/22 03:27:35;;;;;;;1.30;0.47;;;7.80;54.20;;;;;;5074242;28;20247;-50
2022/01/22 03:30:02;;;;;;;1.00;0.30;;;7.90;54.30;;;;;;5074074;28;20196;-50
2022/01/22 03:32:33;;;;;;;1.00;0.30;;;7.90;54.00;;;;;;5073412;28;20624;-50
2022/01/22 03:35:09;;;;;;;1.45;0.80;;;7.90;53.80;;;;;;5074105;28;20513;-50
2022/01/22 03:37:35;;;;;;;1.05;0.35;;;8.00;54.00;;;;;;5074550;28;20194;-50
2022/01/22 03:40:02;;;;;;;1.45;0.45;;;8.00;53.90;;;;;;5073817;28;20524;-50
2022/01/22 03:42:28;;;;;;;1.10;0.40;;;8.00;53.50;;;;;;5073884;28;20239;-50
2022/01/22 03:45:12;;;;;;;1.20;0.30;;;8.10;53.50;;;;;;5073922;28;20199;-50
2022/01/22 03:47:39;;;;;;;1.10;0.50;;;8.10;53.20;;;;;;5073418;28;20171;-50
2022/01/22 03:50:06;;;;;;;0.98;0.25;;;8.10;53.60;;;;;;5073695;28;20201;-50
2022/01/22 03:52:32;;;;;;;2.67;0.80;;;8.10;53.40;;;;;;5073644;28;20221;-50
2022/01/22 03:54:57;;;;;;;2.23;0.50;;;8.10;53.40;;;;;;5073807;28;20168;-50
2022/01/22 03:57:24;;;;;;;1.27;0.50;;;8.00;53.60;;;;;;5073689;28;20157;-50
2022/01/22 03:59:52;;;;;;;1.35;0.75;;;8.00;53.40;;;;;;5073760;28;20166;-50
2022/01/22 04:03:00;;;;;;;3.92;0.50;;;8.10;53.20;;;;;;5073579;28;20201;-50
2022/01/22 04:05:15;;;;;;;1.25;0.75;;;8.10;53.60;;;;;;5073391;28;20200;-50
2022/01/22 04:10:09;;;;;;;1.17;0.40;;;8.10;53.30;;;;;;5073722;28;20450;-50
2022/01/22 04:12:50;;;;;;;0.90;0.28;;;8.10;53.30;;;;;;5073476;28;20540;-50
2022/01/22 04:15:20;;;;;;;1.00;0.30;;;8.10;53.20;;;;;;5073738;28;20169;-50
2022/01/22 04:25:50;;;;;;;2.28;0.55;;;8.00;53.20;;;;;;5073440;28;20164;-50
2022/01/22 04:28:16;;;;;;;1.00;0.30;;;8.00;53.10;;;;;;5073653;28;20160;-50
2022/01/22 04:30:41;;;;;;;1.77;0.50;;;8.00;53.30;;;;;;5073343;28;20203;-50
2022/01/22 04:33:07;;;;;;;1.40;0.60;;;8.00;53.40;;;;;;5073279;28;20283;-50
2022/01/22 04:35:33;;;;;;;1.20;0.40;;;8.00;53.40;;;;;;5073298;28;20168;-50
2022/01/22 04:37:59;;;;;;;1.00;0.30;;;8.00;53.20;;;;;;5073270;28;20172;-50
2022/01/22 04:40:25;;;;;;;1.00;0.35;;;8.00;53.20;;;;;;5073311;28;20165;-50
2022/01/22 04:42:51;;;;;;;1.10;0.40;;;8.00;53.10;;;;;;5073205;28;20247;-50
2022/01/22 04:47:57;;;;;;;1.30;0.60;;;8.00;52.90;;;;;;5077452;28;20467;-50
2022/01/22 04:55:43;;;;;;;1.00;0.40;;;8.00;53.00;;;;;;5077121;28;20218;-50
2022/01/22 04:58:09;;;;;;;1.15;0.45;;;8.00;52.80;;;;;;5075670;28;20248;-49
2022/01/22 05:00:41;;;;;;;1.10;0.50;;;8.00;52.80;;;;;;5077012;28;20201;-50
2022/01/22 05:03:07;;;;;;;1.25;0.40;;;7.90;52.90;;;;;;5076921;28;20559;-50
2022/01/22 05:05:33;;;;;;;1.10;0.43;;;7.90;52.90;;;;;;5076808;28;20173;-50
2022/01/22 05:07:59;;;;;;;0.93;0.27;;;7.90;52.80;;;;;;5076809;28;20169;-49
2022/01/22 05:10:25;;;;;;;1.00;0.30;;;7.90;52.70;;;;;;5076637;28;20454;-50
2022/01/22 05:12:53;;;;;;;1.00;0.40;;;7.80;52.70;;;;;;5076706;28;20417;-50
2022/01/22 05:15:19;;;;;;;1.00;0.30;;;7.80;52.70;;;;;;5076656;28;20173;-50
2022/01/22 05:17:45;;;;;;;1.02;0.40;;;7.80;52.70;;;;;;5076539;28;20165;-50
2022/01/22 05:20:22;;;;;;;1.33;0.55;;;7.80;52.40;;;;;;5076575;28;20523;-50
2022/01/22 05:25:24;;;;;;;1.00;0.30;;;7.80;52.20;;;;;;5076719;28;20585;-50
2022/01/22 05:28:01;;;;;;;1.10;0.50;;;7.70;52.00;;;;;;5076756;28;20210;-49
2022/01/22 05:38:23;;;;;;;1.05;0.45;;;7.70;52.10;;;;;;5076523;28;20156;-50
2022/01/22 05:40:49;;;;;;;1.00;0.32;;;7.70;51.40;;;;;;5076198;28;20160;-49
2022/01/22 05:43:15;;;;;;;1.00;0.30;;;7.70;51.40;;;;;;5074778;28;20207;-49
2022/01/22 05:45:42;;;;;;;1.10;0.47;;;7.60;51.30;;;;;;5076037;28;20192;-49
2022/01/22 05:48:08;;;;;;;1.15;0.50;;;7.60;51.40;;;;;;5076077;28;20169;-50
2022/01/22 05:53:29;;;;;;;1.45;0.50;;;7.60;51.20;;;;;;5076284;28;20387;-50
2022/01/22 06:01:05;;;;;;;1.58;0.82;;;7.60;51.10;;;;;;5075858;28;20164;-50
2022/01/22 06:03:30;;;;;;;1.40;0.70;;;7.60;51.00;;;;;;5075862;28;20169;-50
2022/01/22 06:05:56;;;;;;;1.00;0.50;;;7.60;51.00;;;;;;5075681;28;20164;-50
2022/01/22 06:08:22;;;;;;;1.33;0.60;;;7.60;50.90;;;;;;5075649;28;20196;-50
2022/01/22 06:10:54;;;;;;;1.73;0.80;;;7.60;50.80;;;;;;5075605;28;20449;-50
2022/01/22 06:13:22;;;;;;;1.00;0.35;;;7.50;50.90;;;;;;5075641;28;20208;-50
2022/01/22 06:15:47;;;;;;;1.42;0.52;;;7.50;50.80;;;;;;5074444;28;20179;-50
2022/01/22 06:18:13;;;;;;;1.23;0.60;;;7.50;50.70;;;;;;5074179;28;20181;-50
2022/01/22 06:20:39;;;;;;;1.53;0.73;;;7.50;50.70;;;;;;5075434;28;20251;-50
2022/01/22 06:23:05;;;;;;;1.60;0.83;;;7.40;50.60;;;;;;5075300;28;20224;-50
2022/01/22 06:25:31;;;;;;;1.55;0.40;;;7.40;50.60;;;;;;5075437;28;20168;-50
2022/01/22 06:27:57;;;;;;;1.10;0.40;;;7.40;50.60;;;;;;5075316;28;20173;-50
2022/01/22 06:30:23;;;;;;;0.97;0.37;;;7.40;50.60;;;;;;5075603;28;20196;-50
2022/01/22 06:32:49;;;;;;;1.88;0.93;;;7.30;50.60;;;;;;5075191;28;20410;-50
2022/01/22 06:35:15;;;;;;;1.20;0.80;;;7.30;51.40;;;;;;5075090;28;20172;-50
2022/01/22 06:37:41;;;;;;;3.27;1.33;;;7.30;50.90;;;;;;5075151;28;20497;-50
2022/01/22 06:42:34;;;;;;;1.00;0.30;;;7.30;50.80;;;;;;5074966;28;20173;-50
2022/01/22 06:45:01;;;;;;;2.05;0.68;;;7.30;50.90;;;;;;5074964;28;20230;-50
2022/01/22 06:47:29;;;;;;;1.50;0.73;;;7.30;50.90;;;;;;5075225;28;20182;-50
2022/01/22 06:49:54;;;;;;;2.13;0.85;;;7.30;51.10;;;;;;5075011;28;20258;-50
2022/01/22 06:52:20;;;;;;;2.50;1.03;;;7.30;51.20;;;;;;5073761;28;20644;-50
2022/01/22 06:54:47;;;;;;;1.20;0.50;;;7.30;51.20;;;;;;5074782;28;20165;-50
2022/01/22 06:57:13;;;;;;;1.10;0.45;;;7.30;51.10;;;;;;5074858;28;20406;-50
2022/01/22 06:59:39;;;;;;;1.65;0.80;;;7.40;51.10;;;;;;5074625;28;20179;-50
2022/01/22 07:02:06;;;;;;;1.00;0.50;;;7.40;51.10;;;;;;5073596;28;20175;-50
2022/01/22 07:04:36;;;;;;;5.45;1.48;;;7.40;51.80;;;;;;5074495;28;20177;-50
2022/01/22 07:07:09;;;;;;;2.97;1.50;;;7.40;51.10;;;;;;5073654;28;20596;-49
2022/01/22 07:09:36;;;;;;;1.40;0.55;;;7.40;51.70;;;;;;5074647;28;20283;-50
2022/01/22 07:12:02;;;;;;;1.27;0.70;;;7.40;51.00;;;;;;5074430;28;20165;-50
2022/01/22 07:14:28;;;;;;;1.60;0.82;;;7.40;51.10;;;;;;5074531;28;20172;-50
2022/01/22 07:16:54;;;;;;;1.20;0.60;;;7.40;51.00;;;;;;5074365;28;20538;-50
2022/01/22 07:19:20;;;;;;;1.47;0.83;;;7.40;50.90;;;;;;5074251;28;20453;-49
2022/01/22 07:22:06;;;;;;;1.00;0.47;;;7.40;51.00;;;;;;5074154;28;20251;-50
2022/01/22 07:24:37;;;;;;;1.23;0.55;;;7.40;51.00;;;;;;5074248;28;20568;-49
2022/01/22 07:27:04;;;;;;;3.38;1.10;;;7.30;51.00;;;;;;5074388;28;20200;-49
2022/01/22 07:29:30;;;;;;;1.20;0.50;;;7.30;50.80;;;;;;5074264;28;20238;-49
2022/01/22 07:32:00;;;;;;;1.30;0.70;;;7.30;50.90;;;;;;5074085;28;20168;-50
2022/01/22 07:34:25;;;;;;;2.67;0.70;;;7.30;50.90;;;;;;5073906;28;20175;-49
2022/01/22 07:36:51;;;;;;;2.43;0.90;;;7.30;50.80;;;;;;5074034;28;20251;-50
2022/01/22 07:39:17;;;;;;;1.33;0.60;;;7.30;50.70;;;;;;5073859;28;20160;-50
2022/01/22 07:41:42;;;;;;;1.30;0.60;;;7.30;50.60;;;;;;5073913;28;20164;-50
2022/01/22 07:44:08;;;;;;;1.77;0.53;;;7.20;50.40;;;;;;5073881;28;20172;-50
2022/01/22 07:46:34;;;;;;;3.33;1.07;;;7.30;50.40;;;;;;5073750;28;20611;-50
2022/01/22 07:49:00;;;;;;;1.53;0.70;;;7.30;50.40;;;;;;5073767;28;20403;-50
2022/01/22 07:51:25;;;;;;;1.70;0.90;;;7.20;50.20;;;;;;5073729;28;20505;-50
2022/01/22 07:53:51;;;;;;;2.23;0.47;;;7.20;50.20;;;;;;5072393;28;20173;-50
2022/01/22 07:56:17;;;;;;;1.70;0.70;;;7.20;50.20;;;;;;5073698;28;20679;-49
2022/01/22 07:58:43;;;;;;;1.58;0.50;;;7.20;50.10;;;;;;5073689;28;20247;-50
2022/01/22 08:01:09;;;;;;;1.50;0.57;;;7.30;50.30;;;;;;5073548;28;20243;-50
2022/01/22 08:03:34;;;;;;;1.30;0.70;;;7.20;50.10;;;;;;5073694;28;20176;-50
2022/01/22 08:06:00;;;;;;;1.40;0.80;;;7.30;50.20;;;;;;5073620;28;20164;-50
2022/01/22 08:08:26;;;;;;;1.60;0.97;;;7.30;50.20;;;;;;5073538;28;20171;-49
2022/01/22 08:10:53;;;;;;;1.67;0.87;;;7.30;50.10;;;;;;5073528;28;20196;-49
2022/01/22 08:13:21;;;;;;;1.25;0.73;;;7.30;50.20;;;;;;5073492;28;20415;-50
2022/01/22 08:15:46;;;;;;;1.20;0.50;;;7.30;50.20;;;;;;5073718;28;20176;-50
2022/01/22 08:18:12;;;;;;;4.23;1.40;;;7.30;50.20;;;;;;5073158;28;20584;-50
2022/01/22 08:20:38;;;;;;;1.58;0.40;;;7.30;50.10;;;;;;5073327;28;20243;-50
2022/01/22 08:23:04;;;;;;;1.20;0.60;;;7.40;50.10;;;;;;5073154;28;20327;-50
2022/01/22 08:25:31;;;;;;;3.27;1.70;;;7.40;50.10;;;;;;5073227;28;20186;-50
2022/01/22 08:30:30;;;;;;;2.13;1.13;;;7.50;50.20;;;;;;5073176;28;20537;-50
2022/01/22 08:38:07;;;;;;;3.95;1.52;;;7.60;50.50;;;;;;5073603;28;20639;-50
2022/01/22 08:40:33;;;;;;;1.58;0.50;;;7.60;50.60;;;;;;5073089;28;20172;-50
2022/01/22 08:42:58;;;;;;;1.30;0.87;;;7.60;50.50;;;;;;5072142;28;20176;-50
2022/01/22 08:45:24;;;;;;;2.53;0.73;;;7.70;50.70;;;;;;5073261;28;20169;-50
2022/01/22 08:47:50;;;;;;;1.20;0.77;;;7.80;50.50;;;;;;5073156;28;20528;-50
2022/01/22 08:50:16;;;;;;;4.37;0.90;;;7.80;50.40;;;;;;5072974;28;20446;-50
2022/01/22 08:52:41;;;;;;;1.50;0.83;;;7.80;50.40;;;;;;5073115;28;20173;-50
2022/01/22 08:55:08;;;;;;;1.73;0.63;;;7.80;50.30;;;;;;5072004;28;20438;-50
2022/01/22 08:57:33;;;;;;;2.45;1.05;;;7.90;50.30;;;;;;5073099;28;20194;-50
2022/01/22 08:59:59;;;;;;;1.50;0.60;;;8.00;50.00;;;;;;5073224;28;20168;-50
2022/01/22 09:02:25;;;;;;;1.20;0.60;;;8.00;49.80;;;;;;5072907;28;20168;-50
2022/01/22 09:04:53;;;;;;;2.43;1.10;;;8.10;49.80;;;;;;5071731;28;20176;-49
2022/01/22 09:07:19;;;;;;;6.03;1.20;;;8.10;49.60;;;;;;5072926;28;20991;-50
2022/01/22 09:09:46;;;;;;;1.88;0.93;;;8.30;48.60;;;;;;5071498;28;20201;-50
2022/01/22 09:12:12;;;;;;;2.80;1.25;;;8.30;48.90;;;;;;5072826;28;20176;-50
2022/01/22 09:14:38;;;;;;;1.30;0.80;;;8.60;48.50;;;;;;5072725;28;20227;-50
2022/01/22 09:17:05;;;;;;;2.10;0.93;;;8.80;48.20;;;;;;5072827;28;20173;-49
2022/01/22 09:19:34;;;;;;;2.60;1.20;;;9.00;47.40;;;;;;5072817;28;20403;-49
2022/01/22 09:22:05;;;;;;;1.75;1.02;;;9.00;46.90;;;;;;5072730;28;20217;-50
2022/01/22 09:24:31;;;;;;;1.42;0.70;;;9.00;46.90;;;;;;5071604;28;20179;-49
2022/01/22 09:26:59;;;;;;;1.87;0.90;;;9.00;46.00;;;;;;5072781;28;20167;-50
2022/01/22 09:29:25;;;;;;;6.38;1.05;;;8.90;46.40;;;;;;5073338;28;20455;-50
2022/01/22 09:31:51;;;;;;;1.27;0.45;;;8.80;46.40;;;;;;5076392;28;20169;-49
2022/01/22 09:34:17;;;;;;;1.83;0.73;;;8.80;46.10;;;;;;5074997;28;20183;-49
2022/01/22 09:36:43;;;;;;;3.33;1.10;;;8.80;46.70;;;;;;5076116;28;20474;-49
2022/01/22 09:39:08;;;;;;;2.07;1.20;;;8.80;47.20;;;;;;5076108;28;20248;-49
2022/01/22 09:41:34;;;;;;;1.60;0.73;;;8.90;46.90;;;;;;5076038;28;20415;-49
2022/01/22 09:44:01;;;;;;;1.80;1.07;;;9.00;46.90;;;;;;5075121;28;20423;-50
2022/01/22 09:46:27;;;;;;;2.45;0.85;;;9.00;46.40;;;;;;5075920;28;20415;-50
2022/01/22 09:48:54;;;;;;;1.20;0.70;;;9.10;46.00;;;;;;5075976;28;20171;-50
2022/01/22 09:51:20;;;;;;;1.50;0.70;;;9.10;46.10;;;;;;5075952;28;20240;-49
2022/01/22 09:53:46;;;;;;;3.30;1.40;;;9.10;46.60;;;;;;5076058;28;20179;-50
2022/01/22 09:56:17;;;;;;;1.80;0.77;;;9.00;46.10;;;;;;5075878;28;20411;-49
2022/01/22 09:58:43;;;;;;;1.50;0.70;;;9.00;46.30;;;;;;5074633;28;20180;-49
2022/01/22 10:01:23;;;;;;;5.38;1.05;;;9.00;46.20;;;;;;5075859;28;20201;-49
2022/01/22 10:03:50;;;;;;;4.30;0.95;;;9.00;46.20;;;;;;5075700;28;20225;-49
2022/01/22 10:06:25;;;;;;;2.22;1.05;;;9.00;46.00;;;;;;5075707;28;20194;-49
2022/01/22 10:08:56;;;;;;;2.10;1.30;;;9.00;46.00;;;;;;5075631;28;20631;-49
2022/01/22 10:11:26;;;;;;;2.30;1.17;;;9.00;45.50;;;;;;5075907;28;20235;-49
2022/01/22 10:13:54;;;;;;;2.35;1.25;;;8.90;45.20;;;;;;5075844;28;20573;-49
2022/01/22 10:16:26;;;;;;;1.02;0.40;;;8.90;44.70;;;;;;5075518;28;20157;-50
2022/01/22 10:19:27;;;;;;;1.63;1.08;;;8.90;44.80;;;;;;5075404;28;20168;-49
2022/01/22 10:21:57;;;;;;;1.30;0.60;;;8.90;44.80;;;;;;5075211;28;20236;-49
2022/01/22 10:24:36;;;;;;;4.40;0.93;;;8.90;44.50;;;;;;5075360;28;20189;-49
2022/01/22 10:27:29;;;;;;;1.73;0.80;;;8.90;44.30;;;;;;5075605;28;20517;-49
2022/01/22 10:30:07;;;;;;;2.03;1.30;;;9.00;44.50;;;;;;5075305;28;20188;-49
2022/01/22 10:35:07;;;;;;;1.13;0.70;;;9.10;44.50;;;;;;5075366;28;20664;-49
2022/01/22 10:37:33;;;;;;;2.00;0.90;;;9.10;43.20;;;;;;5075184;28;20195;-49
2022/01/22 10:40:37;;;;;;;1.52;0.65;;;9.10;42.30;;;;;;5074982;28;20174;-49
2022/01/22 10:43:17;;;;;;;1.20;0.60;;;9.60;41.80;;;;;;5074947;28;20172;-49
2022/01/22 10:46:20;;;;;;;1.35;0.80;;;10.90;41.00;;;;;;5074872;28;20266;-49
2022/01/22 10:49:07;;;;;;;1.77;1.15;;;12.00;39.90;;;;;;5073901;28;20584;-49
2022/01/22 10:51:45;;;;;;;1.55;0.95;;;12.90;38.50;;;;;;5074927;28;20168;-49
2022/01/22 10:54:13;;;;;;;1.73;0.70;;;12.60;36.90;;;;;;5074820;28;20160;-49
2022/01/22 10:56:40;;;;;;;2.22;0.80;;;12.30;35.40;;;;;;5072722;28;20196;-50
2022/01/22 10:59:10;;;;;;;2.85;0.90;;;11.90;36.70;;;;;;5074779;28;20310;-49
2022/01/22 11:01:56;;;;;;;1.10;0.40;;;11.50;35.90;;;;;;5074687;28;20217;-49
2022/01/22 11:04:24;;;;;;;1.63;0.90;;;11.00;37.10;;;;;;5074631;28;20264;-49
2022/01/22 11:06:56;;;;;;;1.38;0.50;;;10.70;38.50;;;;;;5074579;28;20172;-49
2022/01/22 11:09:23;;;;;;;5.38;0.95;;;11.00;39.60;;;;;;5073123;28;20557;-49
2022/01/22 11:11:49;;;;;;;1.50;0.90;;;10.90;39.00;;;;;;5074297;28;20259;-49
2022/01/22 11:14:16;;;;;;;3.92;1.13;;;10.90;39.70;;;;;;5074420;28;20171;-49
2022/01/22 11:16:45;;;;;;;1.95;0.90;;;10.80;38.80;;;;;;5074428;28;20174;-49
2022/01/22 11:19:15;;;;;;;1.50;0.70;;;10.70;38.70;;;;;;5074522;28;20164;-49
2022/01/22 11:21:44;;;;;;;1.80;0.73;;;10.60;39.10;;;;;;5073986;28;20776;-50
2022/01/22 11:24:16;;;;;;;1.50;0.70;;;10.50;39.80;;;;;;5074108;28;20271;-49
2022/01/22 11:26:54;;;;;;;1.73;0.50;;;10.50;39.40;;;;;;5074102;28;20178;-49
2022/01/22 11:29:46;;;;;;;2.85;0.95;;;10.40;38.40;;;;;;5074071;28;20679;-49
2022/01/22 11:32:13;;;;;;;4.35;1.10;;;10.30;38.60;;;;;;5074144;28;20145;-49
2022/01/22 11:34:42;;;;;;;1.77;0.60;;;10.20;38.90;;;;;;5074239;28;20176;-49
2022/01/22 11:37:45;;;;;;;1.40;0.93;;;10.10;38.00;;;;;;5074192;28;20216;-49
2022/01/22 11:40:20;;;;;;;1.40;0.75;;;10.10;39.20;;;;;;5073825;28;20169;-49
2022/01/22 11:42:56;;;;;;;1.20;0.50;;;9.90;39.00;;;;;;5073838;28;20666;-49
2022/01/22 11:45:31;;;;;;;1.35;0.82;;;9.90;38.70;;;;;;5073739;28;20222;-49
2022/01/22 11:48:10;;;;;;;1.40;0.50;;;9.90;39.00;;;;;;5074032;28;20235;-49
2022/01/22 11:50:36;;;;;;;1.30;0.52;;;9.90;39.50;;;;;;5072375;28;20283;-49
2022/01/22 11:53:23;;;;;;;1.20;0.70;;;10.00;39.00;;;;;;5071934;28;20264;-49
2022/01/22 11:56:07;;;;;;;1.10;0.40;;;10.10;39.40;;;;;;5072396;28;20428;-49
2022/01/22 11:58:54;;;;;;;1.80;0.65;;;10.10;39.70;;;;;;5073634;28;20252;-49
2022/01/22 12:01:50;;;;;;;1.35;0.47;;;10.10;39.70;;;;;;5062481;28;20204;-49
2022/01/22 12:04:28;;;;;;;1.25;0.38;;;10.40;39.40;;;;;;5073897;28;20162;-49
2022/01/22 12:07:03;;;;;;;1.80;0.73;;;10.50;39.00;;;;;;5072297;28;20248;-49
2022/01/22 12:09:32;;;;;;;1.83;0.70;;;10.50;39.30;;;;;;5072119;28;20197;-49
2022/01/22 12:15:04;;;;;;;1.30;0.80;;;10.90;38.60;;;;;;5073504;28;20196;-50
2022/01/22 12:23:09;;;;;;;1.52;0.63;;;12.30;35.40;;;;;;5073149;28;20228;-49
2022/01/22 12:25:35;;;;;;;1.30;0.50;;;12.00;35.80;;;;;;5073338;28;20636;-49
2022/01/22 12:28:02;;;;;;;1.30;0.47;;;11.80;35.40;;;;;;5073305;28;20172;-49
2022/01/22 12:30:39;;;;;;;1.65;0.60;;;11.50;36.10;;;;;;5072003;28;20200;-49
2022/01/22 12:33:10;;;;;;;2.13;0.65;;;11.20;35.80;;;;;;5073497;28;20251;-49
2022/01/22 12:35:36;;;;;;;1.27;0.65;;;11.10;36.90;;;;;;5073348;28;20156;-49
2022/01/22 12:41:30;;;;;;;2.78;1.10;;;11.30;37.50;;;;;;5072486;28;20167;-49
2022/01/22 12:44:05;;;;;;;3.55;0.70;;;11.60;37.80;;;;;;5073236;28;20256;-49
2022/01/22 12:46:32;;;;;;;2.15;0.70;;;11.70;37.30;;;;;;5089019;28;20165;-49
2022/01/22 12:48:58;;;;;;;1.65;0.88;;;11.80;37.00;;;;;;5073114;28;20640;-49
2022/01/22 12:51:27;;;;;;;1.88;0.85;;;12.30;37.60;;;;;;5073049;28;20221;-49
2022/01/22 12:53:53;;;;;;;1.30;0.50;;;12.60;37.20;;;;;;5073048;28;20180;-49
2022/01/22 12:59:02;;;;;;;1.75;0.77;;;12.30;35.10;;;;;;5073053;28;20490;-49
2022/01/22 13:01:30;;;;;;;1.45;0.77;;;12.20;34.80;;;;;;5073004;28;20194;-49
2022/01/22 13:03:57;;;;;;;1.77;1.30;;;11.90;35.50;;;;;;5072913;28;20266;-49
2022/01/22 13:06:44;;;;;;;2.70;1.00;;;12.10;35.40;;;;;;5076740;28;20234;-49
2022/01/22 13:09:11;;;;;;;2.55;1.15;;;12.10;35.20;;;;;;5076649;28;20157;-49
2022/01/22 13:11:46;;;;;;;1.60;0.80;;;12.20;35.30;;;;;;5076737;28;20263;-49
2022/01/22 13:14:17;;;;;;;2.65;0.75;;;12.50;35.40;;;;;;5076879;28;20632;-49
2022/01/22 13:16:52;;;;;;;1.73;0.70;;;12.60;34.00;;;;;;5075249;28;20229;-49
2022/01/22 13:19:18;;;;;;;1.60;0.98;;;12.40;34.10;;;;;;5076505;28;20169;-49
2022/01/22 13:22:05;;;;;;;1.98;1.13;;;12.20;34.80;;;;;;5076423;28;20668;-49
2022/01/22 13:24:31;;;;;;;1.52;0.95;;;11.90;35.20;;;;;;5076512;28;20188;-48
2022/01/22 13:29:34;;;;;;;1.30;0.52;;;11.50;35.70;;;;;;5076501;28;20200;-49
2022/01/22 13:32:18;;;;;;;1.70;1.00;;;11.20;35.90;;;;;;5076287;28;20164;-49
2022/01/22 13:38:27;;;;;;;2.10;1.00;;;10.70;35.80;;;;;;5076231;28;20160;-49
2022/01/22 13:48:35;;;;;;;1.45;0.80;;;10.10;38.00;;;;;;5075775;28;20176;-49
2022/01/22 13:51:02;;;;;;;2.03;1.67;;;10.10;38.10;;;;;;5075978;28;20711;-49
2022/01/22 13:53:29;;;;;;;1.38;0.52;;;10.00;38.00;;;;;;5076054;28;20222;-49
2022/01/22 13:56:06;;;;;;;2.47;1.00;;;10.00;38.20;;;;;;5075875;28;20668;-49
2022/01/22 13:58:33;;;;;;;2.50;1.00;;;10.00;38.30;;;;;;5076176;28;20165;-49
2022/01/22 14:01:05;;;;;;;1.35;0.60;;;10.00;38.30;;;;;;5075801;28;20168;-49
2022/01/22 14:03:38;;;;;;;1.92;0.90;;;9.90;38.30;;;;;;5076095;28;20165;-49
2022/01/22 14:06:05;;;;;;;6.20;1.90;;;9.90;38.30;;;;;;5075735;28;20161;-49
2022/01/22 14:08:34;;;;;;;1.27;0.50;;;9.90;38.60;;;;;;5074447;28;20186;-49
2022/01/22 14:11:07;;;;;;;1.83;0.82;;;9.80;38.60;;;;;;5075604;28;20189;-49
2022/01/22 14:13:33;;;;;;;1.58;0.60;;;9.80;38.60;;;;;;5075616;28;20175;-49
2022/01/22 14:16:22;;;;;;;1.20;0.60;;;9.80;38.20;;;;;;5075146;28;20168;-49
2022/01/22 14:18:48;;;;;;;3.60;1.15;;;9.70;38.60;;;;;;5075737;28;20217;-48
2022/01/22 14:21:19;;;;;;;1.95;1.13;;;9.60;38.70;;;;;;5073980;28;20173;-49
2022/01/22 14:23:46;;;;;;;2.80;0.95;;;9.50;38.80;;;;;;5075175;28;20239;-49
2022/01/22 14:26:16;;;;;;;1.20;0.55;;;9.40;38.80;;;;;;5075459;28;20227;-48
2022/01/22 14:29:01;;;;;;;10.63;1.58;;;9.30;39.00;;;;;;5075293;28;20207;-49
2022/01/22 14:31:47;;;;;;;1.10;0.50;;;9.30;39.30;;;;;;5075528;28;20551;-50
2022/01/22 14:34:29;;;;;;;1.00;0.40;;;9.20;39.20;;;;;;5075471;28;20188;-49
2022/01/22 14:36:55;;;;;;;1.10;0.30;;;9.10;39.40;;;;;;5075149;28;20155;-49
2022/01/22 14:44:51;;;;;;;10.00;1.00;;;9.10;39.90;;;;;;5075275;28;20169;-49
2022/01/22 14:47:23;;;;;;;5.03;0.80;;;9.00;40.00;;;;;;5074890;28;20261;-49
2022/01/22 14:49:55;;;;;;;1.10;0.40;;;9.00;39.80;;;;;;5074831;28;20213;-49
2022/01/22 14:52:25;;;;;;;2.55;1.30;;;8.90;39.90;;;;;;5073524;28;20184;-49
2022/01/22 14:54:52;;;;;;;1.42;0.80;;;8.90;40.00;;;;;;5074664;28;20252;-49
2022/01/22 14:57:30;;;;;;;1.70;1.00;;;8.90;40.20;;;;;;5074488;28;20181;-49
2022/01/22 14:59:56;;;;;;;2.05;1.30;;;8.80;40.20;;;;;;5073381;28;20264;-49
2022/01/22 15:02:22;;;;;;;1.50;0.77;;;8.80;40.30;;;;;;5074707;28;20601;-49
2022/01/22 15:04:47;;;;;;;1.60;1.10;;;8.80;40.40;;;;;;5073213;28;20519;-49
2022/01/22 15:07:16;;;;;;;1.40;0.90;;;8.80;40.50;;;;;;5074471;28;20185;-49
2022/01/22 15:09:44;;;;;;;1.20;0.50;;;8.80;40.50;;;;;;5073109;28;20207;-49
2022/01/22 15:12:11;;;;;;;1.85;1.23;;;8.80;40.60;;;;;;5074308;28;20172;-49
2022/01/22 15:14:38;;;;;;;2.10;1.52;;;8.80;40.80;;;;;;5074332;28;20169;-49